Time;durP1;ratioP1;P1;durP2;ratioP2;P2;SDS_P1;SDS_P2;PMS_P1;PMS_P2;Temp;Humidity;BMP_temperature;BMP_pressure;BME280_temperature;BME280_humidity;BME280_pressure;Samples;Min_cycle;Max_cycle;Signal;HPM_P1;HPM_P2
2021/10/04 00:00:07;;;;;;;13.48;1.87;;;;;;;18.55;48.63;99393.78;4445069;32;20045;-68
2021/10/04 00:02:32;;;;;;;11.75;3.92;;;;;;;18.57;48.77;99382.66;4442975;32;20479;-69
2021/10/04 00:04:58;;;;;;;11.15;1.58;;;;;;;18.17;49.44;99394.72;4443529;32;20068;-68
2021/10/04 00:07:24;;;;;;;11.55;1.80;;;;;;;18.05;49.88;99398.91;4443917;32;20101;-68
2021/10/04 00:09:50;;;;;;;12.80;1.48;;;;;;;17.96;49.90;99397.13;4443958;32;20105;-68
2021/10/04 00:12:16;;;;;;;10.00;1.52;;;;;;;17.91;50.09;99397.13;4444315;32;20382;-68
2021/10/04 00:14:43;;;;;;;7.78;1.55;;;;;;;18.06;49.80;99400.44;4442850;32;20400;-68
2021/10/04 00:17:08;;;;;;;15.55;1.80;;;;;;;18.13;49.65;99406.37;4444167;32;20399;-68
2021/10/04 00:19:35;;;;;;;12.90;1.73;;;;;;;17.77;50.27;99404.66;4444011;32;20052;-68
2021/10/04 00:22:01;;;;;;;15.80;1.92;;;;;;;17.84;50.45;99409.81;4444017;32;20084;-68
2021/10/04 00:24:27;;;;;;;8.10;1.77;;;;;;;18.19;49.45;99406.37;4442968;32;20045;-68
2021/10/04 00:26:53;;;;;;;12.27;1.45;;;;;;;18.37;48.86;99409.41;4443754;32;20017;-68
2021/10/04 00:29:19;;;;;;;9.60;1.65;;;;;;;18.22;49.32;99414.63;4443981;32;20122;-68
2021/10/04 00:31:47;;;;;;;13.50;1.95;;;;;;;17.95;49.75;99406.16;4444128;32;20524;-68
2021/10/04 00:34:12;;;;;;;11.75;1.73;;;;;;;18.09;49.79;99416.47;4443339;32;20033;-68
2021/10/04 00:36:38;;;;;;;14.40;1.60;;;;;;;18.07;49.58;99413.38;4444676;32;20103;-68
2021/10/04 00:39:05;;;;;;;17.12;1.87;;;;;;;18.14;49.38;99419.31;4441964;32;20073;-68
2021/10/04 00:41:31;;;;;;;18.37;2.05;;;;;;;18.30;49.01;99420.56;4444024;32;20063;-68
2021/10/04 00:43:57;;;;;;;10.98;1.48;;;;;;;18.07;49.67;99430.47;4443342;32;20136;-68
2021/10/04 00:46:25;;;;;;;11.95;2.10;;;;;;;17.91;49.95;99437.75;4442513;32;20026;-68
2021/10/04 00:48:51;;;;;;;9.77;1.52;;;;;;;18.15;49.81;99435.09;4444641;32;20073;-68
2021/10/04 00:51:20;;;;;;;13.60;1.60;;;;;;;18.28;49.33;99448.78;4445825;32;20076;-68
2021/10/04 00:53:48;;;;;;;9.75;1.30;;;;;;;18.06;49.84;99443.13;4442496;32;20067;-68
2021/10/04 00:56:16;;;;;;;10.45;1.42;;;;;;;18.45;49.09;99447.47;4441576;32;20092;-68
2021/10/04 00:58:42;;;;;;;18.67;2.22;;;;;;;18.54;48.79;99452.87;4443572;32;20418;-68
2021/10/04 01:01:08;;;;;;;8.88;1.73;;;;;;;18.47;48.84;99458.34;4444305;32;20029;-68
2021/10/04 01:03:34;;;;;;;14.75;2.10;;;;;;;18.57;48.54;99462.44;4442939;32;20105;-68
2021/10/04 01:06:01;;;;;;;7.12;1.40;;;;;;;18.53;48.68;99457.00;4443597;32;20091;-68
2021/10/04 01:08:27;;;;;;;7.93;1.40;;;;;;;18.66;48.52;99460.06;4441963;32;20068;-68
2021/10/04 01:10:53;;;;;;;15.30;1.87;;;;;;;18.68;48.23;99454.59;4442333;32;20328;-68
2021/10/04 01:13:19;;;;;;;10.15;2.15;;;;;;;18.70;48.29;99462.63;4443161;32;20111;-68
2021/10/04 01:15:44;;;;;;;12.93;2.00;;;;;;;18.74;48.06;99472.47;4444009;32;20107;-68
2021/10/04 01:18:10;;;;;;;14.63;1.80;;;;;;;18.45;48.72;99470.25;4443818;32;20045;-68
2021/10/04 01:20:36;;;;;;;9.32;1.60;;;;;;;18.65;48.36;99466.31;4441853;32;20514;-68
2021/10/04 01:23:03;;;;;;;12.45;2.42;;;;;;;18.57;48.38;99460.37;4441685;32;20085;-68
2021/10/04 01:25:29;;;;;;;8.25;1.70;;;;;;;18.79;48.21;99453.78;4442785;32;20030;-68
2021/10/04 01:27:55;;;;;;;14.63;2.55;;;;;;;18.80;47.97;99452.47;4441976;32;21157;-68
2021/10/04 01:30:26;;;;;;;11.45;2.00;;;;;;;18.72;48.01;99460.81;4441899;32;20080;-68
2021/10/04 01:32:53;;;;;;;14.13;2.47;;;;;;;18.81;47.87;99460.50;4444129;32;20081;-68
2021/10/04 01:35:19;;;;;;;17.20;2.03;;;;;;;18.58;48.49;99461.13;4441394;32;20040;-68
2021/10/04 01:37:45;;;;;;;13.77;2.45;;;;;;;18.37;49.13;99465.59;4444558;32;20067;-68
2021/10/04 01:40:12;;;;;;;14.23;2.78;;;;;;;18.05;49.87;99465.16;4443649;32;20374;-68
2021/10/04 01:42:39;;;;;;;13.68;2.28;;;;;;;18.14;50.38;99462.03;4442797;32;20085;-68
2021/10/04 01:45:08;;;;;;;14.93;2.22;;;;;;;18.10;50.21;99470.03;4443499;32;20021;-68
2021/10/04 01:47:34;;;;;;;24.10;3.00;;;;;;;18.13;50.62;99468.25;4443803;32;20030;-68
2021/10/04 01:50:00;;;;;;;12.63;2.15;;;;;;;17.99;50.54;99463.59;4442452;32;20069;-68
2021/10/04 01:52:26;;;;;;;21.35;3.08;;;;;;;18.09;50.20;99465.66;4442186;32;20041;-68
2021/10/04 01:54:51;;;;;;;18.33;2.87;;;;;;;18.26;50.13;99468.47;4443958;32;20037;-68
2021/10/04 01:57:17;;;;;;;10.27;2.40;;;;;;;18.24;50.10;99465.34;4442565;32;20088;-68
2021/10/04 01:59:43;;;;;;;19.50;2.22;;;;;;;18.30;49.94;99464.06;4444072;32;21136;-68
2021/10/04 02:02:09;;;;;;;20.70;2.92;;;;;;;17.92;50.88;99459.22;4428806;32;20118;-68
2021/10/04 02:04:35;;;;;;;17.83;3.42;;;;;;;18.06;50.52;99463.06;4441893;32;20050;-68
2021/10/04 02:07:00;;;;;;;14.30;2.55;;;;;;;18.04;50.40;99457.12;4443382;32;20100;-68
2021/10/04 02:09:26;;;;;;;16.98;2.80;;;;;;;18.13;50.26;99454.00;4441048;32;20088;-68
2021/10/04 02:11:52;;;;;;;20.90;2.37;;;;;;;18.47;49.45;99452.63;4442299;32;20431;-68
2021/10/04 02:14:18;;;;;;;14.15;2.90;;;;;;;18.41;49.28;99455.50;4444101;32;20037;-68
2021/10/04 02:16:44;;;;;;;14.43;2.35;;;;;;;18.25;50.03;99453.44;4427098;32;20374;-68
2021/10/04 02:19:11;;;;;;;15.95;2.25;;;;;;;18.28;49.80;99441.00;4443664;32;20045;-68
2021/10/04 02:21:36;;;;;;;15.10;2.65;;;;;;;18.33;49.43;99442.28;4428046;32;20136;-68
2021/10/04 02:24:03;;;;;;;18.90;2.95;;;;;;;18.19;50.00;99449.06;4427539;32;20123;-68
2021/10/04 02:26:29;;;;;;;22.52;2.65;;;;;;;18.10;50.38;99447.28;4442671;32;20060;-67
2021/10/04 02:28:54;;;;;;;16.98;2.30;;;;;;;18.14;50.31;99447.78;4442174;32;20068;-68
2021/10/04 02:31:20;;;;;;;16.42;2.33;;;;;;;18.19;49.90;99451.94;4444488;32;20408;-68
2021/10/04 02:33:45;;;;;;;21.90;2.50;;;;;;;18.18;50.09;99453.19;4442615;32;20378;-68
2021/10/04 02:36:12;;;;;;;17.27;2.42;;;;;;;18.23;50.03;99460.97;4441666;32;20707;-68
2021/10/04 02:38:37;;;;;;;14.00;2.15;;;;;;;18.48;49.47;99454.97;4443413;32;20051;-68
2021/10/04 02:41:03;;;;;;;12.20;2.50;;;;;;;18.48;49.17;99451.34;4443648;32;20470;-68
2021/10/04 02:43:29;;;;;;;20.98;2.80;;;;;;;18.29;49.85;99453.19;4442798;32;20142;-68
2021/10/04 02:45:55;;;;;;;13.68;2.60;;;;;;;18.33;49.51;99451.63;4443250;32;20077;-68
2021/10/04 02:48:21;;;;;;;13.75;2.67;;;;;;;18.45;49.23;99463.78;4443608;32;20068;-68
2021/10/04 02:50:48;;;;;;;16.52;2.37;;;;;;;18.37;49.44;99451.34;4447215;32;20497;-68
2021/10/04 02:53:14;;;;;;;16.85;2.58;;;;;;;18.44;49.68;99453.69;4443413;32;20025;-68
2021/10/04 02:55:40;;;;;;;15.45;2.33;;;;;;;18.24;49.92;99456.81;4445158;32;20418;-69
2021/10/04 02:58:06;;;;;;;12.85;2.33;;;;;;;18.07;50.17;99462.53;4445960;32;20072;-69
2021/10/04 03:00:34;;;;;;;16.75;2.90;;;;;;;18.18;49.89;99456.06;4444113;32;20085;-69
2021/10/04 03:03:01;;;;;;;15.20;2.95;;;;;;;18.31;49.94;99457.06;4443845;32;20084;-69
2021/10/04 03:05:28;;;;;;;21.52;3.40;;;;;;;17.97;50.66;99457.66;4446515;32;20038;-69
2021/10/04 03:07:54;;;;;;;17.60;2.20;;;;;;;17.90;50.79;99467.50;4443652;32;20045;-69
2021/10/04 03:10:20;;;;;;;12.45;2.17;;;;;;;17.90;50.71;99476.03;4445696;32;20069;-68
2021/10/04 03:12:45;;;;;;;20.55;2.42;;;;;;;17.88;50.57;99472.94;4446298;32;20113;-68
2021/10/04 03:15:11;;;;;;;17.45;2.50;;;;;;;17.79;50.79;99484.56;4444604;32;20456;-69
2021/10/04 03:17:37;;;;;;;16.92;2.67;;;;;;;17.83;50.70;99480.16;4445912;32;20457;-69
2021/10/04 03:20:05;;;;;;;30.25;3.12;;;;;;;18.23;49.33;99478.06;4445156;32;20095;-69
2021/10/04 03:22:30;;;;;;;17.02;2.78;;;;;;;18.16;50.10;99496.44;4446339;32;20060;-69
2021/10/04 03:24:56;;;;;;;16.58;2.50;;;;;;;18.08;50.02;99486.88;4445229;32;20532;-68
2021/10/04 03:27:22;;;;;;;20.45;3.50;;;;;;;17.98;50.31;99490.53;4444548;32;20456;-68
2021/10/04 03:29:48;;;;;;;14.73;2.80;;;;;;;18.06;50.04;99498.00;4443788;32;20412;-68
2021/10/04 03:32:14;;;;;;;12.07;2.42;;;;;;;17.86;50.24;99495.47;4446139;32;20025;-68
2021/10/04 03:34:40;;;;;;;20.45;3.58;;;;;;;17.99;50.08;99492.84;4447068;32;20133;-68
2021/10/04 03:37:06;;;;;;;14.82;3.08;;;;;;;18.16;49.68;99498.53;4444746;32;20533;-69
2021/10/04 03:39:32;;;;;;;15.98;2.95;;;;;;;18.00;50.06;99496.44;4445535;32;20091;-69
2021/10/04 03:41:58;;;;;;;18.90;2.92;;;;;;;18.14;49.72;99496.19;4444828;32;20037;-69
2021/10/04 03:44:23;;;;;;;14.45;3.15;;;;;;;17.99;49.95;99501.38;4445553;32;20045;-68
2021/10/04 03:46:49;;;;;;;17.77;3.85;;;;;;;17.89;50.41;99505.81;4443992;32;20164;-68
2021/10/04 03:49:15;;;;;;;12.65;3.35;;;;;;;17.71;50.68;99507.06;4446174;32;20075;-68
2021/10/04 03:51:41;;;;;;;13.43;3.72;;;;;;;17.91;50.28;99506.03;4444491;32;20052;-68
2021/10/04 03:54:07;;;;;;;21.92;4.03;;;;;;;18.15;49.71;99508.34;4445052;32;20172;-68
2021/10/04 03:56:32;;;;;;;13.88;3.80;;;;;;;18.33;49.25;99504.94;4443935;32;20072;-68
2021/10/04 03:58:58;;;;;;;15.75;4.05;;;;;;;18.31;49.04;99496.16;4444170;32;20441;-68
2021/10/04 04:01:23;;;;;;;15.82;3.90;;;;;;;18.16;49.53;99493.59;4443778;32;20415;-68
2021/10/04 04:03:52;;;;;;;21.83;4.12;;;;;;;18.29;49.23;99510.94;4444285;32;20147;-68
2021/10/04 04:06:19;;;;;;;15.25;3.58;;;;;;;18.32;49.18;99512.72;4443498;32;20402;-68
2021/10/04 04:08:45;;;;;;;23.10;4.03;;;;;;;18.50;48.88;99505.72;4444790;32;20402;-68
2021/10/04 04:11:11;;;;;;;14.52;3.72;;;;;;;18.10;49.78;99514.84;4445135;32;20041;-68
2021/10/04 04:13:41;;;;;;;11.00;3.55;;;;;;;18.21;49.50;99500.56;4445260;32;20105;-68
2021/10/04 04:16:16;;;;;;;19.37;4.65;;;;;;;18.40;49.08;99493.81;4443537;32;20083;-68
2021/10/04 04:18:49;;;;;;;16.00;3.25;;;;;;;18.43;48.88;99507.03;4445329;32;20176;-68
2021/10/04 04:21:20;;;;;;;16.52;3.35;;;;;;;18.35;48.92;99502.38;4444599;32;20398;-68
2021/10/04 04:23:56;;;;;;;18.05;3.37;;;;;;;18.22;49.14;99507.84;4417204;32;20089;-68
2021/10/04 04:26:22;;;;;;;16.10;3.45;;;;;;;18.16;49.18;99507.06;4443910;32;20431;-68
2021/10/04 04:28:47;;;;;;;13.60;3.62;;;;;;;18.42;48.77;99510.41;4443796;32;20037;-68
2021/10/04 04:31:13;;;;;;;11.45;3.53;;;;;;;18.32;48.64;99509.09;4444316;32;20075;-68
2021/10/04 04:33:39;;;;;;;15.10;3.17;;;;;;;18.13;49.24;99519.50;4445884;32;20146;-68
2021/10/04 04:36:05;;;;;;;11.68;2.90;;;;;;;18.20;48.97;99505.50;4444235;32;20044;-68
2021/10/04 04:38:31;;;;;;;17.60;3.15;;;;;;;18.26;48.96;99522.56;4444549;32;20144;-68
2021/10/04 04:40:57;;;;;;;12.68;2.65;;;;;;;18.22;48.71;99522.81;4444264;32;20025;-68
2021/10/04 04:43:23;;;;;;;12.70;2.37;;;;;;;18.19;48.87;99529.56;4443648;32;20106;-68
2021/10/04 04:45:48;;;;;;;9.77;2.30;;;;;;;18.38;48.46;99524.91;4444703;32;20080;-68
2021/10/04 04:48:14;;;;;;;10.65;2.42;;;;;;;18.46;48.08;99525.12;4443411;32;20021;-68
2021/10/04 04:50:40;;;;;;;13.20;2.47;;;;;;;18.37;48.36;99517.66;4442764;32;20176;-68
2021/10/04 04:53:06;;;;;;;11.52;2.15;;;;;;;18.26;48.62;99519.72;4444293;32;20105;-68
2021/10/04 04:55:31;;;;;;;9.32;2.05;;;;;;;18.17;48.84;99525.69;4443891;32;20080;-68
2021/10/04 04:57:57;;;;;;;14.73;2.37;;;;;;;18.14;48.84;99521.81;4444798;32;20077;-68
2021/10/04 05:00:23;;;;;;;13.18;2.47;;;;;;;18.13;48.93;99520.25;4444070;32;20065;-68
2021/10/04 05:02:49;;;;;;;15.77;2.30;;;;;;;18.33;48.23;99519.97;4444008;32;20652;-68
2021/10/04 05:05:17;;;;;;;12.32;2.60;;;;;;;18.29;48.29;99516.62;4442787;32;20045;-68
2021/10/04 05:07:44;;;;;;;12.32;2.50;;;;;;;18.37;48.21;99509.09;4443525;32;20488;-68
2021/10/04 05:10:10;;;;;;;8.00;2.35;;;;;;;18.06;48.83;99511.47;4442747;32;20115;-68
2021/10/04 05:12:36;;;;;;;16.75;2.10;;;;;;;18.03;48.75;99515.34;4444059;32;20081;-68
2021/10/04 05:15:02;;;;;;;8.55;1.80;;;;;;;18.03;48.87;99513.28;4443454;32;20080;-68
2021/10/04 05:17:27;;;;;;;7.20;2.03;;;;;;;18.07;48.61;99515.88;4441980;32;20081;-68
2021/10/04 05:19:53;;;;;;;6.85;2.08;;;;;;;18.16;48.40;99519.22;4443946;32;20087;-68
2021/10/04 05:22:19;;;;;;;8.32;1.60;;;;;;;18.25;48.10;99523.88;4444494;32;20418;-68
2021/10/04 05:24:44;;;;;;;11.12;2.20;;;;;;;18.03;48.69;99510.44;4442020;32;20098;-68
2021/10/04 05:27:10;;;;;;;6.78;1.95;;;;;;;18.17;48.48;99515.09;4442360;32;20041;-68
2021/10/04 05:29:38;;;;;;;12.18;2.67;;;;;;;18.07;48.43;99527.25;4444312;32;20119;-68
2021/10/04 05:32:06;;;;;;;7.57;2.10;;;;;;;18.32;48.24;99520.50;4444483;32;20419;-68
2021/10/04 05:34:32;;;;;;;11.00;2.28;;;;;;;18.31;48.26;99519.72;4442730;32;20091;-68
2021/10/04 05:36:57;;;;;;;7.97;2.28;;;;;;;18.20;48.17;99522.59;4444974;32;20037;-68
2021/10/04 05:39:23;;;;;;;9.35;2.55;;;;;;;18.22;48.29;99522.81;4444594;32;20082;-68
2021/10/04 05:41:49;;;;;;;13.93;2.83;;;;;;;18.27;48.07;99526.97;4443616;32;20417;-68
2021/10/04 05:44:15;;;;;;;8.93;2.20;;;;;;;17.96;48.89;99528.03;4441721;32;20132;-68
2021/10/04 05:46:40;;;;;;;9.65;2.35;;;;;;;17.92;49.17;99523.91;4440658;32;20037;-68
2021/10/04 05:49:06;;;;;;;13.02;3.28;;;;;;;18.13;48.70;99525.94;4444330;32;20104;-68
2021/10/04 05:51:32;;;;;;;12.57;2.95;;;;;;;17.88;49.54;99532.69;4443551;32;20140;-68
2021/10/04 05:53:57;;;;;;;12.48;2.90;;;;;;;17.90;49.51;99524.44;4441268;32;20103;-69
2021/10/04 05:56:23;;;;;;;16.37;3.25;;;;;;;18.03;49.35;99530.38;4442350;32;20077;-69
2021/10/04 05:58:49;;;;;;;13.93;3.80;;;;;;;17.93;49.57;99534.78;4442528;32;20529;-68
2021/10/04 06:01:15;;;;;;;10.35;2.95;;;;;;;17.62;50.35;99535.78;4442743;32;20056;-68
2021/10/04 06:03:40;;;;;;;18.62;3.50;;;;;;;17.95;49.60;99531.41;4442948;32;20088;-68
2021/10/04 06:06:06;;;;;;;14.73;3.50;;;;;;;17.98;49.54;99542.50;4443743;32;20436;-68
2021/10/04 06:08:31;;;;;;;14.20;3.87;;;;;;;17.78;50.09;99535.03;4442187;32;20099;-68
2021/10/04 06:10:57;;;;;;;11.25;3.83;;;;;;;17.98;49.41;99542.50;4444307;32;20132;-68
2021/10/04 06:13:23;;;;;;;14.45;3.78;;;;;;;18.14;49.44;99540.97;4443033;32;20055;-69
2021/10/04 06:15:49;;;;;;;11.50;3.85;;;;;;;18.04;49.48;99543.28;4427171;32;20097;-68
2021/10/04 06:18:15;;;;;;;14.45;4.03;;;;;;;18.04;49.59;99540.44;4442269;32;20068;-68
2021/10/04 06:20:41;;;;;;;17.70;5.12;;;;;;;18.11;49.43;99545.63;4444040;32;20098;-68
2021/10/04 06:23:08;;;;;;;9.98;3.97;;;;;;;18.31;49.32;99544.59;4441992;32;20104;-68
2021/10/04 06:25:35;;;;;;;11.70;4.55;;;;;;;18.51;48.89;99545.09;4445103;32;20037;-68
2021/10/04 06:28:01;;;;;;;14.70;4.12;;;;;;;18.64;48.49;99550.22;4444878;32;20026;-68
2021/10/04 06:30:27;;;;;;;13.00;4.40;;;;;;;18.76;48.18;99538.28;4431385;32;20474;-68
2021/10/04 06:32:53;;;;;;;15.25;4.35;;;;;;;18.93;47.77;99535.34;4444246;32;20084;-68
2021/10/04 06:35:19;;;;;;;14.18;4.10;;;;;;;18.88;48.03;99539.00;4444111;32;20037;-68
2021/10/04 06:37:45;;;;;;;10.02;3.58;;;;;;;18.51;48.76;99536.53;4444612;32;20037;-68
2021/10/04 06:40:12;;;;;;;9.57;3.75;;;;;;;18.73;48.17;99533.63;4443877;32;20109;-68
2021/10/04 06:42:38;;;;;;;10.32;3.05;;;;;;;18.92;47.95;99534.56;4436065;32;20080;-68
2021/10/04 06:45:06;;;;;;;9.63;3.25;;;;;;;18.72;48.41;99543.44;4435561;32;20112;-68
2021/10/04 06:47:32;;;;;;;10.20;3.85;;;;;;;18.83;48.35;99548.34;4442595;32;20052;-69
2021/10/04 06:49:58;;;;;;;9.63;3.65;;;;;;;18.84;48.24;99552.75;4433982;32;20404;-68
2021/10/04 06:52:24;;;;;;;11.55;3.17;;;;;;;19.10;47.63;99556.78;4439323;32;20574;-69
2021/10/04 06:54:49;;;;;;;15.27;3.40;;;;;;;19.29;46.92;99554.91;4431876;32;20104;-69
2021/10/04 06:57:15;;;;;;;9.82;3.35;;;;;;;19.14;47.39;99556.50;4440205;32;20048;-69
2021/10/04 06:59:41;;;;;;;9.63;3.30;;;;;;;18.78;47.73;99554.84;4434083;32;20107;-69
2021/10/04 07:02:06;;;;;;;13.70;3.10;;;;;;;18.91;47.85;99547.28;4433711;32;20387;-69
2021/10/04 07:04:32;;;;;;;8.18;2.78;;;;;;;18.79;48.25;99547.84;4430569;32;20410;-69
2021/10/04 07:07:01;;;;;;;9.25;3.00;;;;;;;19.12;47.56;99561.97;4435846;32;20080;-69
2021/10/04 07:09:27;;;;;;;7.37;2.72;;;;;;;19.02;47.58;99557.88;4436308;32;20512;-68
2021/10/04 07:11:53;;;;;;;8.50;2.67;;;;;;;19.14;47.33;99562.97;4421856;32;20386;-69
2021/10/04 07:14:19;;;;;;;6.03;2.40;;;;;;;19.25;47.08;99562.94;4431162;32;20542;-69
2021/10/04 07:16:45;;;;;;;9.85;3.15;;;;;;;19.39;46.87;99567.53;4435928;32;20116;-69
2021/10/04 07:19:10;;;;;;;7.32;2.85;;;;;;;19.07;47.39;99574.16;4436600;32;20686;-69
2021/10/04 07:21:36;;;;;;;10.02;3.05;;;;;;;19.46;46.76;99566.97;4436590;32;20037;-70
2021/10/04 07:24:02;;;;;;;11.80;2.42;;;;;;;19.34;46.70;99574.06;4433686;32;20674;-69
2021/10/04 07:26:30;;;;;;;8.02;2.40;;;;;;;19.44;46.52;99574.53;4419656;32;20075;-69
2021/10/04 07:28:56;;;;;;;4.65;2.25;;;;;;;19.43;46.75;99578.69;4435754;32;20115;-69
2021/10/04 07:31:22;;;;;;;7.65;2.10;;;;;;;19.12;47.56;99570.53;4432617;32;20104;-69
2021/10/04 07:33:49;;;;;;;4.80;2.17;;;;;;;19.02;47.43;99589.22;4428310;32;20147;-69
2021/10/04 07:36:15;;;;;;;11.63;2.30;;;;;;;18.91;47.87;99569.31;4437352;32;20042;-69
2021/10/04 07:38:42;;;;;;;8.70;1.92;;;;;;;18.99;47.68;99573.19;4434022;32;20119;-69
2021/10/04 07:41:08;;;;;;;8.60;2.20;;;;;;;18.90;47.91;99587.72;4436797;32;20109;-69
2021/10/04 07:43:34;;;;;;;8.25;2.50;;;;;;;19.38;46.99;99588.03;4435875;32;20084;-68
2021/10/04 07:46:03;;;;;;;12.07;2.37;;;;;;;19.66;46.32;99580.88;4431997;32;20089;-68
2021/10/04 07:48:29;;;;;;;6.78;2.15;;;;;;;19.12;47.19;99596.94;4432276;32;20509;-68
2021/10/04 07:50:55;;;;;;;17.40;2.75;;;;;;;18.81;47.86;99590.84;4433060;32;20056;-69
2021/10/04 07:53:21;;;;;;;7.47;2.22;;;;;;;19.06;47.41;99595.44;4431799;32;20342;-70
2021/10/04 07:55:47;;;;;;;10.65;2.15;;;;;;;19.46;46.62;99589.81;4432885;32;20105;-69
2021/10/04 07:58:13;;;;;;;6.70;2.28;;;;;;;19.38;46.53;99590.91;4427930;32;20072;-70
2021/10/04 08:00:40;;;;;;;7.30;2.75;;;;;;;19.55;46.12;99586.66;4431896;32;20045;-70
2021/10/04 08:03:05;;;;;;;12.70;2.47;;;;;;;19.20;46.91;99588.63;4431829;32;20488;-69
2021/10/04 08:05:31;;;;;;;9.02;2.37;;;;;;;19.66;46.15;99585.81;4430982;32;20268;-70
2021/10/04 08:07:57;;;;;;;11.12;2.20;;;;;;;19.87;45.70;99591.88;4430890;32;20482;-70
2021/10/04 08:10:23;;;;;;;6.03;1.58;;;;;;;20.15;45.23;99592.50;4434372;32;20072;-69
2021/10/04 08:12:51;;;;;;;7.97;2.28;;;;;;;19.79;45.51;99589.59;4428002;32;20122;-69
2021/10/04 08:15:17;;;;;;;5.50;1.52;;;;;;;19.95;45.25;99596.50;4430546;32;20077;-69
2021/10/04 08:17:43;;;;;;;7.47;2.10;;;;;;;20.00;45.00;99592.06;4432330;32;20085;-69
2021/10/04 08:20:11;;;;;;;6.82;1.92;;;;;;;19.63;45.85;99590.50;4429837;32;20403;-69
2021/10/04 08:22:39;;;;;;;10.75;1.75;;;;;;;20.03;45.31;99588.16;4432633;32;20067;-69
2021/10/04 08:25:07;;;;;;;5.53;1.60;;;;;;;20.22;44.89;99601.25;4431237;32;20359;-69
2021/10/04 08:27:34;;;;;;;11.93;2.22;;;;;;;20.27;44.66;99591.84;4429404;32;20084;-69
2021/10/04 08:29:59;;;;;;;3.50;1.67;;;;;;;20.07;44.99;99592.28;4431521;32;20136;-69
2021/10/04 08:32:25;;;;;;;8.18;1.87;;;;;;;19.99;45.42;99590.50;4429875;32;20085;-69
2021/10/04 08:34:50;;;;;;;10.52;2.25;;;;;;;19.86;45.44;99587.50;4432977;32;20486;-68
2021/10/04 08:37:16;;;;;;;12.48;2.10;;;;;;;20.05;45.38;99594.09;4427677;32;20282;-68
2021/10/04 08:39:42;;;;;;;11.93;2.53;;;;;;;20.55;43.85;99592.38;4430651;32;20128;-68
2021/10/04 08:42:08;;;;;;;9.20;1.98;;;;;;;20.44;44.37;99603.94;4428651;32;20045;-68
2021/10/04 08:44:36;;;;;;;6.60;1.70;;;;;;;19.85;45.28;99603.84;4429912;32;20081;-68
2021/10/04 08:47:06;;;;;;;10.57;2.20;;;;;;;19.71;45.97;99596.41;4430109;32;20653;-68
2021/10/04 08:49:33;;;;;;;7.95;2.37;;;;;;;19.92;45.35;99588.22;4429407;32;20057;-68
2021/10/04 08:52:01;;;;;;;7.95;2.00;;;;;;;19.74;45.69;99601.06;4433877;32;20076;-68
2021/10/04 08:54:29;;;;;;;9.02;2.47;;;;;;;19.75;45.68;99602.63;4430007;32;20083;-68
2021/10/04 08:56:56;;;;;;;9.02;2.58;;;;;;;19.88;45.33;99599.16;4427637;32;20088;-68
2021/10/04 08:59:22;;;;;;;11.27;3.35;;;;;;;20.58;44.38;99608.44;4428825;32;20145;-68
2021/10/04 09:01:48;;;;;;;6.25;1.70;;;;;;;20.47;44.15;99608.56;4429424;32;20103;-69
2021/10/04 09:04:19;;;;;;;9.30;2.00;;;;;;;20.79;43.81;99605.91;4429985;32;20104;-68
2021/10/04 09:06:45;;;;;;;6.05;1.55;;;;;;;21.24;43.14;99604.91;4430275;32;20041;-68
2021/10/04 09:09:13;;;;;;;14.63;2.42;;;;;;;21.15;42.60;99608.12;4430862;32;20569;-68
2021/10/04 09:14:30;;;;;;;7.30;1.40;;;;;;;22.30;41.31;99610.63;3966518;32;15139585;-69
2021/10/04 09:19:35;;;;;;;8.00;1.75;;;;;;;23.03;39.46;99613.75;3946599;32;15725524;-69
2021/10/04 09:27:38;;;;;;;10.50;1.62;;;;;;;23.43;37.92;99627.56;3972435;32;15023460;-69
2021/10/04 09:30:10;;;;;;;8.75;1.40;;;;;;;23.43;37.92;99627.56;4426152;32;20131;-69
2021/10/04 09:32:39;;;;;;;5.62;0.73;;;;;;;23.49;38.07;99613.09;4424994;32;20157;-69
2021/10/04 09:37:51;;;;;;;7.18;1.12;;;;;;;23.67;37.30;99611.38;3974051;32;15022506;-69
2021/10/04 09:40:38;;;;;;;7.93;1.17;;;;;;;23.56;37.49;99615.28;4425108;32;20111;-69
2021/10/04 09:43:08;;;;;;;6.87;0.80;;;;;;;23.36;37.20;99611.03;4426510;32;20086;-69
2021/10/04 09:45:35;;;;;;;4.85;1.40;;;;;;;23.29;37.64;99608.06;4425991;32;20067;-69
2021/10/04 09:48:15;;;;;;;2.55;0.70;;;;;;;23.30;37.44;99621.06;4428053;32;20084;-69
2021/10/04 09:50:42;;;;;;;6.75;0.82;;;;;;;22.80;38.02;99612.66;4425711;32;20100;-69
2021/10/04 09:53:11;;;;;;;5.90;0.90;;;;;;;22.67;38.06;99604.03;4427536;32;20110;-69
2021/10/04 09:55:41;;;;;;;5.90;1.00;;;;;;;22.93;37.71;99598.31;4426539;32;20140;-69
2021/10/04 09:58:14;;;;;;;3.25;0.90;;;;;;;23.50;36.25;99608.88;4425893;32;20123;-69
2021/10/04 10:03:23;;;;;;;3.85;1.00;;;;;;;23.45;36.22;99609.78;3969701;32;15022438;-70
2021/10/04 10:05:54;;;;;;;4.32;0.88;;;;;;;23.45;36.22;99609.78;4420650;32;20232;-70
2021/10/04 10:08:22;;;;;;;5.10;1.00;;;;;;;22.66;37.42;99622.53;4417531;32;20038;-68
2021/10/04 10:10:49;;;;;;;3.58;0.85;;;;;;;22.60;38.17;99625.53;4421244;32;20080;-70
2021/10/04 10:13:18;;;;;;;4.93;1.08;;;;;;;22.60;37.94;99621.88;4420815;32;20037;-69
2021/10/04 10:15:56;;;;;;;6.18;1.30;;;;;;;22.42;38.67;99628.41;4414853;32;20084;-69
2021/10/04 10:18:27;;;;;;;6.25;1.00;;;;;;;22.91;38.17;99636.16;4416701;32;20585;-68
2021/10/04 10:20:56;;;;;;;9.65;2.00;;;;;;;22.95;38.08;99630.09;4418890;32;20089;-68
2021/10/04 10:58:16;;;;;;;6.25;1.45;;;;;;;25.22;33.19;99646.47;3958571;32;15022726;-69
2021/10/04 11:03:26;;;;;;;3.20;0.57;;;;;;;24.39;34.02;99647.88;3973883;32;15022655;-69
2021/10/04 11:06:07;;;;;;;;;;;;;;;23.89;34.66;99645.38;4423165;32;20541;-69
2021/10/04 11:16:43;;;;;;;5.72;2.78;;;;;;;24.92;33.17;99646.25;3974529;32;15022797;-69
2021/10/04 11:19:25;;;;;;;4.62;0.93;;;;;;;24.92;33.17;99646.25;4421182;32;20072;-69
2021/10/04 11:21:52;;;;;;;6.47;0.57;;;;;;;24.98;32.50;99650.50;4426235;32;20111;-69
2021/10/04 11:24:20;;;;;;;8.77;3.33;;;;;;;24.82;32.77;99660.38;4425184;32;20065;-69
2021/10/04 11:26:46;;;;;;;2.10;0.43;;;;;;;24.93;32.85;99660.09;4430075;32;20955;-69
2021/10/04 11:29:12;;;;;;;4.00;0.90;;;;;;;25.46;31.65;99642.41;4426391;32;20084;-69
2021/10/04 11:31:45;;;;;;;7.18;1.00;;;;;;;25.54;31.91;99657.59;4427496;32;20085;-70
2021/10/04 11:34:14;;;;;;;4.55;0.60;;;;;;;25.99;30.91;99661.50;4425744;32;20685;-70
2021/10/04 11:39:22;;;;;;;2.28;0.40;;;;;;;27.89;28.19;99661.69;3989697;31;15017241;-70
2021/10/04 11:41:54;;;;;;;2.03;0.45;;;;;;;27.89;28.19;99661.69;4443610;32;20703;-70
2021/10/04 11:44:24;;;;;;;7.47;0.88;;;;;;;27.78;27.91;99659.22;4445330;32;20508;-71
2021/10/04 11:46:53;;;;;;;4.15;0.98;;;;;;;27.18;28.05;99659.31;4446544;32;20084;-71
2021/10/04 11:49:26;;;;;;;4.90;0.82;;;;;;;27.09;28.39;99657.81;4444752;32;20100;-72
2021/10/04 11:51:55;;;;;;;4.50;0.73;;;;;;;26.27;29.25;99654.84;4445706;32;20108;-72
2021/10/04 11:54:44;;;;;;;8.18;1.37;;;;;;;25.36;30.80;99647.91;4444544;32;20100;-72
2021/10/04 12:05:24;;;;;;;11.63;1.30;;;;;;;25.67;30.51;99643.09;3974646;32;15022889;-72
2021/10/04 12:07:57;;;;;;;5.50;1.08;;;;;;;26.10;30.25;99655.38;4422059;32;20397;-72
2021/10/04 12:10:23;;;;;;;3.83;0.70;;;;;;;26.92;28.42;99653.97;4421828;32;20080;-72
2021/10/04 12:12:49;;;;;;;3.65;0.65;;;;;;;27.41;27.45;99660.09;4420995;32;20119;-72
2021/10/04 12:15:15;;;;;;;4.37;1.02;;;;;;;26.95;28.01;99659.38;4417828;32;20411;-72
2021/10/04 12:17:41;;;;;;;4.62;1.23;;;;;;;26.44;28.47;99655.84;4419861;32;20099;-71
2021/10/04 12:20:21;;;;;;;5.43;1.10;;;;;;;26.67;28.23;99639.38;4416566;32;20153;-72
2021/10/04 12:22:47;;;;;;;4.53;0.75;;;;;;;27.03;28.26;99644.94;4418881;32;20137;-71
2021/10/04 12:25:31;;;;;;;3.42;0.70;;;;;;;27.16;28.16;99657.00;4422562;32;20104;-72
2021/10/04 12:28:03;;;;;;;5.07;0.95;;;;;;;26.64;28.12;99657.84;4424009;32;20089;-72
2021/10/04 12:33:47;;;;;;;7.93;1.13;;;;;;;26.76;28.80;99664.00;3989393;31;15015417;-72
2021/10/04 12:36:12;;;;;;;3.80;0.70;;;;;;;26.76;28.80;99664.00;4443750;32;20038;-72
2021/10/04 12:38:56;;;;;;;5.05;0.85;;;;;;;26.57;28.83;99672.97;4447913;32;20102;-70
2021/10/04 12:41:37;;;;;;;6.82;1.25;;;;;;;27.41;28.11;99677.44;4445940;32;20085;-72